Time;durP1;ratioP1;P1;durP2;ratioP2;P2;SDS_P1;SDS_P2;PMS_P1;PMS_P2;Temp;Humidity;BMP_temperature;BMP_pressure;BME280_temperature;BME280_humidity;BME280_pressure;Samples;Min_cycle;Max_cycle;Signal;HPM_P1;HPM_P2
2023/08/15 00:01:56;;;;;;;5.60;4.90;;;27.10;61.20;;;;;;222078;1269;22523;-56
2023/08/15 00:06:59;;;;;;;5.50;5.00;;;27.10;61.80;;;;;;221906;1268;22646;-55
2023/08/15 00:12:02;;;;;;;5.80;4.80;;;27.10;61.20;;;;;;222088;1268;22648;-55
2023/08/15 00:17:05;;;;;;;5.60;4.90;;;27.10;61.20;;;;;;221712;1269;24245;-56
2023/08/15 00:22:08;;;;;;;7.80;5.00;;;27.10;61.30;;;;;;221740;1257;24277;-52
2023/08/15 00:27:11;;;;;;;6.40;5.20;;;27.10;61.30;;;;;;222022;1270;25079;-55
2023/08/15 00:32:15;;;;;;;6.10;4.90;;;27.10;61.30;;;;;;221706;1249;24356;-55
2023/08/15 00:37:18;;;;;;;5.10;4.60;;;27.00;61.30;;;;;;221930;1263;22671;-56
2023/08/15 00:42:21;;;;;;;8.70;4.70;;;27.00;61.70;;;;;;221912;1271;23906;-56
2023/08/15 00:47:25;;;;;;;5.80;5.20;;;27.00;61.40;;;;;;222179;1266;22525;-56
2023/08/15 00:52:28;;;;;;;4.90;4.50;;;27.00;61.30;;;;;;222111;1269;25331;-55
2023/08/15 00:57:31;;;;;;;5.10;4.60;;;27.00;61.20;;;;;;221715;1268;22537;-56
2023/08/15 01:02:35;;;;;;;5.10;4.70;;;27.00;61.60;;;;;;221844;1271;22746;-55
2023/08/15 01:07:38;;;;;;;5.30;4.80;;;27.00;61.20;;;;;;221688;1270;23916;-55
2023/08/15 01:13:04;;;;;;;9.20;4.60;;;27.00;61.10;;;;;;221841;1268;22596;-55
2023/08/15 01:18:12;;;;;;;5.30;4.80;;;27.00;61.10;;;;;;221703;1265;22765;-54
2023/08/15 01:23:20;;;;;;;4.80;4.40;;;27.00;61.10;;;;;;221896;1271;22526;-54
2023/08/15 01:28:23;;;;;;;6.20;5.00;;;27.00;61.00;;;;;;221859;1265;23136;-55
2023/08/15 01:33:33;;;;;;;5.90;4.00;;;27.00;61.00;;;;;;221982;1269;22602;-57
2023/08/15 01:38:41;;;;;;;5.70;4.60;;;27.00;60.90;;;;;;221708;1265;22589;-55
2023/08/15 01:43:45;;;;;;;4.90;4.40;;;27.00;61.30;;;;;;221883;1268;22537;-56
2023/08/15 01:48:48;;;;;;;4.40;4.00;;;27.00;60.90;;;;;;221736;1268;23894;-54
2023/08/15 01:53:52;;;;;;;10.30;5.60;;;27.00;60.70;;;;;;221642;1270;22566;-53
2023/08/15 01:58:55;;;;;;;5.70;5.20;;;26.90;60.60;;;;;;221803;1271;24074;-57
2023/08/15 02:03:58;;;;;;;4.50;4.00;;;26.90;60.50;;;;;;221690;1261;22766;-54
2023/08/15 02:09:01;;;;;;;6.80;4.50;;;26.90;60.50;;;;;;221743;1265;22541;-56
2023/08/15 02:14:06;;;;;;;5.80;5.20;;;26.90;60.40;;;;;;221698;1268;22527;-53
2023/08/15 02:19:10;;;;;;;8.30;4.50;;;26.90;60.40;;;;;;221684;1268;22636;-54
2023/08/15 02:24:13;;;;;;;4.90;4.10;;;26.90;60.40;;;;;;221937;1270;22527;-54
2023/08/15 02:29:15;;;;;;;5.00;4.50;;;26.80;60.70;;;;;;221900;1271;22646;-54
2023/08/15 02:34:18;;;;;;;6.00;4.40;;;26.90;60.40;;;;;;221490;1271;22547;-55
2023/08/15 02:39:21;;;;;;;4.40;4.00;;;26.80;60.40;;;;;;221786;1270;22653;-54
2023/08/15 02:44:26;;;;;;;8.50;4.50;;;26.80;60.30;;;;;;221960;1268;25892;-53
2023/08/15 02:49:29;;;;;;;5.80;4.40;;;26.80;60.30;;;;;;222065;1271;22520;-54
2023/08/15 02:54:34;;;;;;;5.20;4.70;;;26.80;60.30;;;;;;221684;1271;22527;-57
2023/08/15 02:59:37;;;;;;;4.40;4.00;;;26.80;60.30;;;;;;222137;1269;22767;-54
2023/08/15 03:04:40;;;;;;;4.80;4.50;;;26.70;60.20;;;;;;222151;1271;22727;-54
2023/08/15 03:09:43;;;;;;;7.20;4.20;;;26.80;60.60;;;;;;222282;1269;24323;-54
2023/08/15 03:14:46;;;;;;;5.60;5.10;;;26.80;60.20;;;;;;221919;1271;22715;-55
2023/08/15 03:19:49;;;;;;;6.60;3.90;;;26.80;60.20;;;;;;221807;1267;22525;-55
2023/08/15 03:24:52;;;;;;;6.50;4.90;;;26.70;60.10;;;;;;221776;1269;208308;-53
2023/08/15 03:29:56;;;;;;;5.60;4.70;;;26.70;60.00;;;;;;221872;1271;22660;-53
2023/08/15 03:35:00;;;;;;;4.70;4.30;;;26.70;59.90;;;;;;221904;1269;24726;-55
2023/08/15 03:40:05;;;;;;;4.20;3.80;;;26.70;59.90;;;;;;221863;1270;22512;-54
2023/08/15 03:45:09;;;;;;;4.60;3.80;;;26.60;59.90;;;;;;221904;1271;25294;-54
2023/08/15 03:50:12;;;;;;;5.50;3.90;;;26.60;59.90;;;;;;221926;1270;24233;-56
2023/08/15 03:55:15;;;;;;;4.70;4.30;;;26.70;59.90;;;;;;221774;1268;24215;-54
2023/08/15 04:00:18;;;;;;;4.40;3.80;;;26.60;59.70;;;;;;221829;1268;25556;-56
2023/08/15 04:05:23;;;;;;;5.50;4.30;;;26.60;59.80;;;;;;221897;1259;22521;-55
2023/08/15 04:10:26;;;;;;;4.60;4.20;;;26.60;59.60;;;;;;221756;1256;22628;-55
2023/08/15 04:15:29;;;;;;;4.80;4.30;;;26.60;59.60;;;;;;221638;1271;22510;-54
2023/08/15 04:20:37;;;;;;;4.40;4.00;;;26.50;59.50;;;;;;221891;1271;22522;-54
2023/08/15 04:25:41;;;;;;;5.00;4.10;;;26.50;59.40;;;;;;221752;1264;24323;-53
2023/08/15 04:30:44;;;;;;;4.70;3.80;;;26.60;59.30;;;;;;221925;1267;24078;-54
2023/08/15 04:35:47;;;;;;;4.20;3.80;;;26.50;59.30;;;;;;222098;1271;22524;-54
2023/08/15 04:40:50;;;;;;;4.40;4.00;;;26.50;59.30;;;;;;221715;1264;22548;-54
2023/08/15 04:45:53;;;;;;;5.10;4.50;;;26.60;59.30;;;;;;221914;1256;22611;-57
2023/08/15 04:50:56;;;;;;;4.20;3.90;;;26.50;59.30;;;;;;222170;1271;22642;-56
2023/08/15 04:55:59;;;;;;;4.60;4.20;;;26.60;59.40;;;;;;221772;1269;22524;-53
2023/08/15 05:01:02;;;;;;;3.70;3.30;;;26.50;59.70;;;;;;221790;1271;22582;-56
2023/08/15 05:06:07;;;;;;;4.40;4.10;;;26.50;59.30;;;;;;221846;1265;23145;-54
2023/08/15 05:11:10;;;;;;;4.50;4.10;;;26.50;59.50;;;;;;221878;1261;22593;-49
2023/08/15 05:16:13;;;;;;;5.40;3.80;;;26.50;59.50;;;;;;221999;1270;24353;-50
2023/08/15 05:21:16;;;;;;;5.50;4.40;;;26.50;59.40;;;;;;221950;1268;22543;-52
2023/08/15 05:26:22;;;;;;;6.20;3.90;;;26.50;59.50;;;;;;221847;1271;22523;-51
2023/08/15 05:31:25;;;;;;;4.20;3.80;;;26.50;59.80;;;;;;222081;1269;25454;-51
2023/08/15 05:36:29;;;;;;;4.70;4.10;;;26.50;59.50;;;;;;222010;1270;22784;-48
2023/08/15 05:41:32;;;;;;;4.20;3.90;;;26.60;59.90;;;;;;221881;1271;22564;-49
2023/08/15 05:46:36;;;;;;;4.00;3.70;;;26.60;59.60;;;;;;221738;1271;22528;-51
2023/08/15 05:51:39;;;;;;;4.30;4.00;;;26.60;59.50;;;;;;221809;1271;22578;-49
2023/08/15 05:56:42;;;;;;;4.10;3.80;;;26.60;59.90;;;;;;221804;1268;22614;-51
2023/08/15 06:01:46;;;;;;;4.20;3.80;;;26.60;59.60;;;;;;221935;1271;25663;-50
2023/08/15 06:06:48;;;;;;;6.70;4.10;;;26.70;59.70;;;;;;221700;1260;22621;-52
2023/08/15 06:11:51;;;;;;;4.40;4.00;;;26.70;60.10;;;;;;222160;1269;22528;-51
2023/08/15 06:16:54;;;;;;;3.90;3.60;;;26.70;59.80;;;;;;221663;1271;23890;-50
2023/08/15 06:21:57;;;;;;;3.70;3.40;;;26.70;59.80;;;;;;221969;1267;25450;-49
2023/08/15 06:27:00;;;;;;;4.20;3.90;;;26.70;60.20;;;;;;221778;1271;22623;-49
2023/08/15 06:32:03;;;;;;;7.00;3.60;;;26.80;60.00;;;;;;222064;1257;22537;-48
2023/08/15 06:37:05;;;;;;;3.90;3.40;;;26.80;59.90;;;;;;222241;1271;22520;-48
2023/08/15 06:42:10;;;;;;;4.30;3.90;;;26.80;59.80;;;;;;221676;1271;22776;-48
2023/08/15 06:47:13;;;;;;;5.60;3.90;;;26.80;59.90;;;;;;221788;1267;22782;-51
2023/08/15 06:52:16;;;;;;;3.80;3.60;;;26.80;59.90;;;;;;221867;1271;22528;-55
2023/08/15 06:57:19;;;;;;;4.20;3.90;;;26.90;59.90;;;;;;221800;1271;23897;-51
2023/08/15 07:02:22;;;;;;;4.30;3.90;;;26.90;59.90;;;;;;221812;1271;22835;-50
2023/08/15 07:07:26;;;;;;;4.00;3.60;;;27.00;59.90;;;;;;221853;1252;24233;-50
2023/08/15 07:12:29;;;;;;;3.90;3.60;;;27.00;59.90;;;;;;221816;1256;23043;-50
2023/08/15 07:17:32;;;;;;;3.70;3.40;;;27.00;59.90;;;;;;222121;1271;22553;-50
2023/08/15 07:22:36;;;;;;;4.20;3.80;;;26.90;59.90;;;;;;221977;1259;22621;-49
2023/08/15 07:27:39;;;;;;;3.80;3.50;;;27.00;60.00;;;;;;222035;1268;23006;-50
2023/08/15 07:32:42;;;;;;;4.10;3.80;;;27.00;60.00;;;;;;221953;1257;25287;-50
2023/08/15 07:37:44;;;;;;;3.70;3.40;;;27.00;60.00;;;;;;221757;1271;22537;-50
2023/08/15 07:42:53;;;;;;;3.90;3.60;;;27.00;60.00;;;;;;222059;1271;22520;-50
2023/08/15 07:47:58;;;;;;;3.60;3.30;;;27.10;60.10;;;;;;222297;1258;23933;-50
2023/08/15 07:53:00;;;;;;;4.10;3.80;;;27.10;60.10;;;;;;222035;1271;22521;-50
2023/08/15 07:58:04;;;;;;;3.80;3.60;;;27.10;60.10;;;;;;221777;1270;23602;-48
2023/08/15 08:03:06;;;;;;;4.30;3.60;;;27.20;60.10;;;;;;221893;1264;24270;-53
2023/08/15 08:08:12;;;;;;;3.90;3.60;;;27.20;60.00;;;;;;222079;1271;25347;-48
2023/08/15 08:13:17;;;;;;;3.90;3.60;;;27.20;60.00;;;;;;221999;1267;22531;-49
2023/08/15 08:18:22;;;;;;;3.70;3.40;;;27.20;60.00;;;;;;221683;1271;24049;-48
2023/08/15 08:23:25;;;;;;;3.50;3.30;;;27.20;60.00;;;;;;222084;1267;22520;-53
2023/08/15 08:28:29;;;;;;;3.60;3.30;;;27.20;60.00;;;;;;221983;1271;22553;-50
2023/08/15 08:33:32;;;;;;;4.70;3.80;;;27.30;59.90;;;;;;221999;1263;24222;-48
2023/08/15 08:38:36;;;;;;;3.90;3.60;;;27.30;59.90;;;;;;222039;1270;22522;-50
2023/08/15 08:43:40;;;;;;;3.80;3.60;;;27.30;60.00;;;;;;222114;1270;22646;-50
2023/08/15 08:48:43;;;;;;;3.70;3.30;;;27.40;60.00;;;;;;222077;1257;22920;-47
2023/08/15 08:53:46;;;;;;;3.60;3.40;;;27.40;59.90;;;;;;222151;1264;24314;-50
2023/08/15 08:58:51;;;;;;;3.90;3.60;;;27.40;59.90;;;;;;221877;1267;22602;-48
2023/08/15 09:03:55;;;;;;;3.50;3.20;;;27.50;59.90;;;;;;222109;1271;22750;-48
2023/08/15 09:08:59;;;;;;;4.10;3.80;;;27.50;59.80;;;;;;221934;1257;22734;-52
2023/08/15 09:14:03;;;;;;;3.80;3.50;;;27.50;59.60;;;;;;221975;1270;23013;-50
2023/08/15 09:19:06;;;;;;;3.40;3.10;;;27.60;59.60;;;;;;221940;1265;24201;-50
2023/08/15 09:24:09;;;;;;;3.60;3.40;;;27.60;59.60;;;;;;222033;1271;23019;-54
2023/08/15 09:29:12;;;;;;;3.60;3.30;;;27.60;59.60;;;;;;222005;1271;22534;-49
2023/08/15 09:34:15;;;;;;;3.10;2.90;;;27.70;59.50;;;;;;221949;1267;25542;-49
2023/08/15 09:39:19;;;;;;;3.80;3.50;;;27.70;59.40;;;;;;222234;1270;22657;-50
2023/08/15 09:44:34;;;;;;;4.20;3.30;;;27.70;59.20;;;;;;221951;1268;22644;-52
2023/08/15 09:49:38;;;;;;;3.80;3.50;;;27.80;59.10;;;;;;221869;1257;22638;-49
2023/08/15 09:54:41;;;;;;;3.30;3.10;;;27.80;58.80;;;;;;221887;1263;22573;-50
2023/08/15 09:59:45;;;;;;;3.80;3.50;;;27.90;58.70;;;;;;222090;1268;25786;-52
2023/08/15 10:05:06;;;;;;;3.80;3.50;;;27.90;58.60;;;;;;221827;1267;22647;-50
2023/08/15 10:10:09;;;;;;;;;;;28.00;58.70;;;;;;221972;1270;22488;-48
2023/08/15 10:15:12;;;;;;;3.10;2.90;;;28.00;58.60;;;;;;222111;1270;22579;-49
2023/08/15 10:20:19;;;;;;;3.80;3.50;;;28.00;58.60;;;;;;222090;1268;22654;-51
2023/08/15 10:25:28;;;;;;;3.10;2.90;;;28.00;58.60;;;;;;222072;1264;22528;-50
2023/08/15 10:30:33;;;;;;;3.30;3.10;;;28.10;58.40;;;;;;222007;1261;22523;-49
2023/08/15 10:35:36;;;;;;;3.40;3.00;;;28.20;58.50;;;;;;221938;1255;22533;-50
2023/08/15 10:40:40;;;;;;;3.40;3.20;;;28.20;58.80;;;;;;221821;1268;22514;-47
2023/08/15 10:45:52;;;;;;;3.30;3.10;;;28.20;58.40;;;;;;221950;1271;22583;-50
2023/08/15 10:50:55;;;;;;;3.60;3.40;;;28.20;58.30;;;;;;221884;1267;23166;-50
2023/08/15 10:55:58;;;;;;;3.40;3.20;;;28.30;58.40;;;;;;221987;1264;22546;-50
2023/08/15 11:01:01;;;;;;;3.80;3.50;;;28.30;58.40;;;;;;221737;1256;24298;-52
2023/08/15 11:06:09;;;;;;;3.50;3.30;;;28.30;58.30;;;;;;222042;1267;22648;-49
2023/08/15 11:11:12;;;;;;;3.00;2.80;;;28.30;58.20;;;;;;221766;1255;23928;-51
2023/08/15 11:16:17;;;;;;;3.20;3.00;;;28.30;58.20;;;;;;222152;1271;22571;-47
2023/08/15 11:21:20;;;;;;;3.90;3.60;;;28.30;58.20;;;;;;222288;1256;22743;-50
2023/08/15 11:26:24;;;;;;;3.20;3.00;;;28.40;58.20;;;;;;221984;1270;22517;-50
2023/08/15 11:31:28;;;;;;;3.60;3.40;;;28.50;58.80;;;;;;222234;1265;22538;-51
2023/08/15 11:36:31;;;;;;;3.50;3.30;;;28.50;58.40;;;;;;222122;1270;22537;-52
2023/08/15 11:41:34;;;;;;;3.20;3.00;;;28.50;58.00;;;;;;221826;1264;22543;-50
2023/08/15 11:46:38;;;;;;;3.30;3.10;;;28.50;58.00;;;;;;221657;1265;24068;-48
2023/08/15 11:52:04;;;;;;;3.40;3.20;;;28.60;58.00;;;;;;222043;1271;24231;-50
2023/08/15 11:57:06;;;;;;;3.10;2.90;;;28.70;57.90;;;;;;222044;1271;25357;-50
2023/08/15 12:02:11;;;;;;;2.90;2.70;;;28.70;57.80;;;;;;222044;1269;22523;-53
2023/08/15 12:07:14;;;;;;;3.20;3.00;;;28.80;57.80;;;;;;222044;1270;23625;-51
2023/08/15 12:12:19;;;;;;;3.00;2.90;;;28.80;57.80;;;;;;222160;1268;22523;-49
2023/08/15 12:17:22;;;;;;;3.10;2.90;;;28.80;58.10;;;;;;221977;1267;22776;-50
2023/08/15 12:22:26;;;;;;;3.20;3.00;;;28.80;57.60;;;;;;221532;1267;22540;-50
2023/08/15 12:27:32;;;;;;;3.20;3.00;;;28.90;57.70;;;;;;222101;1268;22517;-53
2023/08/15 12:32:35;;;;;;;3.40;3.20;;;28.80;57.50;;;;;;221729;1255;22595;-51
2023/08/15 12:37:38;;;;;;;3.60;3.30;;;28.90;57.70;;;;;;221839;1271;22623;-47
2023/08/15 12:42:41;;;;;;;3.10;2.90;;;28.90;57.70;;;;;;221724;1265;22607;-51
2023/08/15 12:47:44;;;;;;;3.60;3.10;;;28.90;57.80;;;;;;221717;1259;22662;-49
2023/08/15 12:52:47;;;;;;;3.10;2.90;;;28.90;57.70;;;;;;222015;1259;24231;-51
2023/08/15 12:57:50;;;;;;;2.90;2.70;;;28.90;57.90;;;;;;222242;1264;22568;-52
2023/08/15 13:02:53;;;;;;;3.10;2.90;;;28.90;57.90;;;;;;221567;1264;24289;-51
2023/08/15 13:07:56;;;;;;;3.00;2.80;;;28.90;57.80;;;;;;221673;1271;22638;-51
2023/08/15 13:12:59;;;;;;;3.10;2.90;;;28.90;58.50;;;;;;221777;1267;22511;-47
2023/08/15 13:18:02;;;;;;;2.80;2.70;;;28.90;57.90;;;;;;222087;1254;22613;-50
2023/08/15 13:23:05;;;;;;;3.10;2.90;;;28.90;57.90;;;;;;221937;1264;22551;-50
2023/08/15 13:28:08;;;;;;;3.60;3.40;;;28.90;57.90;;;;;;221895;1265;22578;-51
2023/08/15 13:33:10;;;;;;;2.90;2.70;;;28.90;57.90;;;;;;222036;1271;22535;-52
2023/08/15 13:38:13;;;;;;;3.20;3.00;;;28.90;57.90;;;;;;221717;1256;22955;-46
2023/08/15 13:43:16;;;;;;;3.50;3.30;;;28.90;57.90;;;;;;222169;1270;22540;-54
2023/08/15 13:48:19;;;;;;;2.90;2.70;;;28.90;57.90;;;;;;222179;1255;22520;-51
2023/08/15 13:53:23;;;;;;;3.30;3.10;;;28.90;57.90;;;;;;221782;1268;22531;-49
2023/08/15 13:58:26;;;;;;;3.00;2.80;;;28.90;58.30;;;;;;222137;1264;22595;-50
2023/08/15 14:03:29;;;;;;;3.00;2.80;;;28.90;58.30;;;;;;221937;1255;22520;-48
2023/08/15 14:08:33;;;;;;;3.00;2.90;;;28.90;58.10;;;;;;221782;1271;22521;-48
2023/08/15 14:13:36;;;;;;;3.10;2.90;;;28.90;57.60;;;;;;221888;1267;22597;-50
2023/08/15 14:18:38;;;;;;;2.70;2.50;;;28.90;58.40;;;;;;222098;1261;22648;-51
2023/08/15 14:23:44;;;;;;;3.00;2.80;;;28.90;58.10;;;;;;221961;1270;22670;-52
2023/08/15 14:28:46;;;;;;;2.80;2.70;;;28.90;58.00;;;;;;222021;1268;22530;-49
2023/08/15 14:33:49;;;;;;;3.10;2.80;;;28.90;58.30;;;;;;221657;1266;22545;-53
2023/08/15 14:38:53;;;;;;;2.80;2.70;;;28.90;57.90;;;;;;221807;1267;22567;-50
2023/08/15 14:43:56;;;;;;;3.20;3.00;;;28.90;57.90;;;;;;221995;1271;25247;-49
2023/08/15 14:48:59;;;;;;;2.70;2.60;;;29.00;58.00;;;;;;222165;1256;22549;-51
2023/08/15 14:54:01;;;;;;;3.20;3.00;;;28.90;57.80;;;;;;221910;1268;25279;-52
2023/08/15 14:59:06;;;;;;;3.00;2.80;;;28.90;57.90;;;;;;221778;1271;22571;-51
2023/08/15 15:04:09;;;;;;;2.90;2.70;;;28.90;57.90;;;;;;221933;1271;25332;-52
2023/08/15 15:09:12;;;;;;;2.80;2.60;;;28.90;57.90;;;;;;221916;1271;22526;-50
2023/08/15 15:14:15;;;;;;;3.20;3.00;;;28.80;57.30;;;;;;221965;1255;22548;-50
2023/08/15 15:19:19;;;;;;;3.40;3.20;;;28.80;57.60;;;;;;221611;1271;22528;-46
2023/08/15 15:24:22;;;;;;;3.00;2.80;;;28.80;57.30;;;;;;221793;1270;201397;-52
2023/08/15 15:29:25;;;;;;;3.30;3.10;;;28.80;57.30;;;;;;221925;1267;22516;-52
2023/08/15 15:34:28;;;;;;;3.30;3.10;;;28.80;57.50;;;;;;221780;1270;22474;-50
2023/08/15 15:39:33;;;;;;;3.30;3.10;;;28.80;57.60;;;;;;222055;1255;22520;-51
2023/08/15 15:44:35;;;;;;;5.70;3.10;;;28.80;57.70;;;;;;221987;1271;24244;-50
2023/08/15 15:49:39;;;;;;;3.50;3.00;;;28.80;57.30;;;;;;221746;1271;22520;-50
2023/08/15 15:54:42;;;;;;;3.30;3.10;;;28.80;57.70;;;;;;221965;1265;24137;-48
2023/08/15 15:59:45;;;;;;;2.70;2.50;;;28.70;57.60;;;;;;221955;1269;22947;-47
2023/08/15 16:04:49;;;;;;;2.90;2.80;;;28.70;57.40;;;;;;221730;1270;22661;-52
2023/08/15 16:09:52;;;;;;;3.20;3.00;;;28.70;57.60;;;;;;221744;1267;22532;-54
2023/08/15 16:14:55;;;;;;;3.00;2.80;;;28.70;56.70;;;;;;221700;1271;25133;-50
2023/08/15 16:19:58;;;;;;;3.10;2.90;;;28.80;56.80;;;;;;221662;1267;22760;-53
2023/08/15 16:25:01;;;;;;;3.30;3.10;;;28.70;56.80;;;;;;221839;1271;22530;-51
2023/08/15 16:30:04;;;;;;;2.80;2.60;;;28.70;56.80;;;;;;221902;1259;25599;-52
2023/08/15 16:35:20;;;;;;;3.10;2.90;;;28.70;56.90;;;;;;221940;1269;24204;-50
2023/08/15 16:40:23;;;;;;;3.10;2.90;;;28.70;56.90;;;;;;221886;1269;24320;-49
2023/08/15 16:45:26;;;;;;;2.90;2.70;;;28.70;57.50;;;;;;221827;1271;22522;-52
2023/08/15 16:50:29;;;;;;;5.10;3.10;;;28.60;56.80;;;;;;222027;1265;24329;-50
2023/08/15 16:55:33;;;;;;;3.10;2.90;;;28.70;57.30;;;;;;222126;1265;22698;-51
2023/08/15 17:00:37;;;;;;;2.90;2.70;;;28.70;57.30;;;;;;221960;1268;24198;-51
2023/08/15 17:05:40;;;;;;;2.80;2.70;;;28.70;57.30;;;;;;222285;1260;22607;-51
2023/08/15 17:10:44;;;;;;;2.60;2.40;;;28.70;57.50;;;;;;222021;1270;23934;-47
2023/08/15 17:15:47;;;;;;;3.40;3.20;;;28.60;57.60;;;;;;221934;1271;25167;-49
2023/08/15 17:20:51;;;;;;;3.20;2.90;;;28.60;57.70;;;;;;221957;1266;24203;-49
2023/08/15 17:25:55;;;;;;;2.80;2.60;;;28.60;57.60;;;;;;222030;1257;24324;-50
2023/08/15 17:30:59;;;;;;;2.70;2.60;;;28.50;57.60;;;;;;221996;1271;22524;-51
2023/08/15 17:36:03;;;;;;;3.30;3.10;;;28.50;58.00;;;;;;221853;1268;25295;-48
2023/08/15 17:41:07;;;;;;;3.50;3.30;;;28.50;57.90;;;;;;221890;1255;22523;-51
2023/08/15 17:46:12;;;;;;;3.30;3.10;;;28.60;58.10;;;;;;221968;1266;22658;-50
2023/08/15 17:51:17;;;;;;;2.70;2.50;;;28.50;57.70;;;;;;222088;1256;22646;-48
2023/08/15 17:56:22;;;;;;;2.70;2.50;;;28.50;57.60;;;;;;221896;1269;22524;-50
2023/08/15 18:01:27;;;;;;;3.30;3.00;;;28.60;58.00;;;;;;221887;1268;24837;-49
2023/08/15 18:06:32;;;;;;;3.10;2.90;;;28.50;57.90;;;;;;221937;1265;22604;-49
2023/08/15 18:11:36;;;;;;;3.00;2.80;;;28.50;57.50;;;;;;221930;1247;22517;-52
2023/08/15 18:16:39;;;;;;;2.70;2.50;;;28.50;58.00;;;;;;222155;1268;22533;-50
2023/08/15 18:21:43;;;;;;;3.10;2.90;;;28.40;57.90;;;;;;222015;1259;24214;-50
2023/08/15 18:26:46;;;;;;;3.30;3.10;;;28.50;57.60;;;;;;221879;1264;24196;-48
2023/08/15 18:31:50;;;;;;;3.10;2.90;;;28.40;57.60;;;;;;221979;1270;22637;-49
2023/08/15 18:36:54;;;;;;;3.10;2.90;;;28.40;57.50;;;;;;222148;1265;25349;-47
2023/08/15 18:41:57;;;;;;;4.10;3.20;;;28.30;57.60;;;;;;221902;1271;23219;-53
2023/08/15 18:47:02;;;;;;;3.50;3.20;;;28.40;57.60;;;;;;222300;1269;22530;-52
2023/08/15 18:52:06;;;;;;;4.50;3.50;;;28.30;57.50;;;;;;221967;1265;22702;-52
2023/08/15 18:57:10;;;;;;;4.70;3.40;;;28.30;57.40;;;;;;222044;1269;24247;-47
2023/08/15 19:02:13;;;;;;;3.90;3.60;;;28.30;57.50;;;;;;221776;1268;24207;-53
2023/08/15 19:07:16;;;;;;;3.80;3.40;;;28.30;57.50;;;;;;222058;1267;24228;-53
2023/08/15 19:12:21;;;;;;;4.00;3.70;;;28.20;57.40;;;;;;221878;1266;22517;-49
2023/08/15 19:17:25;;;;;;;3.40;3.00;;;28.20;57.40;;;;;;221990;1271;24346;-49
2023/08/15 19:22:29;;;;;;;3.90;3.60;;;28.20;57.40;;;;;;221927;1268;25485;-50
2023/08/15 19:27:35;;;;;;;5.40;3.60;;;28.20;57.40;;;;;;221914;1271;22633;-50
2023/08/15 19:32:40;;;;;;;4.10;3.50;;;28.20;57.40;;;;;;221724;1271;22540;-49
2023/08/15 19:37:44;;;;;;;3.60;3.30;;;28.20;57.60;;;;;;221706;1268;22714;-52
2023/08/15 19:42:48;;;;;;;3.40;3.10;;;28.20;57.20;;;;;;222015;1268;22525;-50
2023/08/15 19:47:53;;;;;;;3.60;3.30;;;28.20;57.60;;;;;;221942;1268;22535;-51
2023/08/15 19:52:58;;;;;;;4.10;3.80;;;28.20;57.60;;;;;;222020;1263;22539;-51
2023/08/15 19:58:02;;;;;;;4.10;3.80;;;28.20;57.70;;;;;;221789;1271;22527;-54
2023/08/15 20:03:05;;;;;;;3.60;3.30;;;28.20;57.70;;;;;;222019;1269;23568;-48
2023/08/15 20:08:09;;;;;;;4.20;3.80;;;28.20;57.40;;;;;;222057;1262;24179;-50
2023/08/15 20:13:13;;;;;;;4.30;3.90;;;28.20;57.40;;;;;;221899;1269;22969;-51
2023/08/15 20:18:16;;;;;;;4.20;3.90;;;28.20;58.00;;;;;;221919;1268;22527;-50
2023/08/15 20:23:19;;;;;;;4.30;3.90;;;28.20;57.80;;;;;;222033;1270;22606;-49
2023/08/15 20:28:23;;;;;;;4.30;3.70;;;28.10;57.90;;;;;;222198;1267;22520;-48
2023/08/15 20:33:26;;;;;;;5.50;4.00;;;28.10;58.00;;;;;;221789;1268;22639;-51
2023/08/15 20:38:29;;;;;;;6.00;4.40;;;28.10;58.00;;;;;;222058;1268;22563;-50
2023/08/15 20:43:32;;;;;;;4.50;4.10;;;28.10;58.20;;;;;;221733;1271;22624;-49
2023/08/15 20:48:35;;;;;;;4.80;4.50;;;28.10;57.90;;;;;;221763;1271;22640;-50
2023/08/15 20:53:38;;;;;;;4.40;4.00;;;28.10;57.90;;;;;;222164;1268;22664;-51
2023/08/15 20:58:41;;;;;;;4.40;4.10;;;28.00;57.80;;;;;;221818;1271;22751;-48
2023/08/15 21:03:44;;;;;;;3.80;3.60;;;28.10;58.00;;;;;;221728;1265;22538;-50
2023/08/15 21:08:47;;;;;;;4.40;4.00;;;28.00;57.90;;;;;;222024;1263;22522;-51
2023/08/15 21:13:50;;;;;;;4.50;4.10;;;28.10;58.00;;;;;;221865;1265;24236;-49
2023/08/15 21:18:53;;;;;;;4.90;4.50;;;28.00;58.00;;;;;;221852;1270;22650;-49
2023/08/15 21:23:56;;;;;;;6.50;4.20;;;28.00;58.10;;;;;;221822;1250;24191;-51
2023/08/15 21:28:59;;;;;;;4.60;4.20;;;28.00;58.20;;;;;;221780;1270;22521;-51
2023/08/15 21:34:02;;;;;;;5.40;4.80;;;28.00;58.40;;;;;;221980;1263;24202;-51
2023/08/15 21:39:06;;;;;;;4.50;4.10;;;27.90;58.50;;;;;;221991;1268;22534;-52
2023/08/15 21:44:09;;;;;;;7.10;4.70;;;27.90;59.10;;;;;;221879;1248;24208;-52
2023/08/15 21:49:12;;;;;;;5.30;4.90;;;27.90;58.90;;;;;;221565;1254;22542;-53
2023/08/15 21:54:15;;;;;;;5.70;4.50;;;27.90;59.00;;;;;;221493;1271;24262;-50
2023/08/15 21:59:17;;;;;;;5.40;4.60;;;27.90;59.10;;;;;;221904;1271;22580;-53
2023/08/15 22:04:20;;;;;;;4.80;4.40;;;27.90;59.20;;;;;;221793;1264;22521;-52
2023/08/15 22:09:23;;;;;;;5.10;4.50;;;27.90;59.20;;;;;;221889;1271;22604;-53
2023/08/15 22:14:26;;;;;;;4.70;4.40;;;27.90;59.20;;;;;;221961;1271;22521;-52
2023/08/15 22:19:29;;;;;;;11.30;5.90;;;27.90;59.20;;;;;;221679;1270;22532;-51
2023/08/15 22:24:32;;;;;;;5.20;4.80;;;27.90;59.20;;;;;;221716;1271;22636;-52
2023/08/15 22:29:35;;;;;;;5.10;4.70;;;27.90;59.30;;;;;;221637;1271;22514;-51
2023/08/15 22:34:38;;;;;;;5.40;4.80;;;27.90;59.30;;;;;;221747;1271;22609;-51
2023/08/15 22:39:41;;;;;;;5.70;4.90;;;27.90;59.40;;;;;;221511;1271;22518;-48
2023/08/15 22:44:44;;;;;;;4.90;4.60;;;27.80;59.50;;;;;;221837;1271;22581;-51
2023/08/15 22:49:47;;;;;;;5.30;4.80;;;27.80;59.80;;;;;;221796;1268;25348;-49
2023/08/15 22:54:50;;;;;;;5.60;5.20;;;27.80;59.70;;;;;;221646;1265;24390;-52
2023/08/15 22:59:53;;;;;;;5.40;5.00;;;27.80;59.70;;;;;;221812;1268;22521;-49
2023/08/15 23:04:56;;;;;;;5.60;5.00;;;27.80;60.00;;;;;;221921;1271;24980;-52
2023/08/15 23:09:59;;;;;;;5.50;5.00;;;27.80;59.70;;;;;;222101;1270;25492;-51
2023/08/15 23:15:02;;;;;;;5.90;5.40;;;27.70;59.70;;;;;;221867;1255;22522;-52
2023/08/15 23:20:07;;;;;;;5.00;4.70;;;27.70;59.60;;;;;;221974;1271;25259;-53
2023/08/15 23:25:11;;;;;;;6.60;5.70;;;27.70;59.90;;;;;;221911;1267;22531;-51
2023/08/15 23:30:14;;;;;;;6.00;5.50;;;27.70;60.10;;;;;;222148;1263;22636;-51
2023/08/15 23:35:17;;;;;;;5.90;5.10;;;27.70;59.80;;;;;;221830;1269;22630;-49
2023/08/15 23:40:20;;;;;;;5.60;5.20;;;27.70;59.80;;;;;;222015;1268;22524;-51
2023/08/15 23:45:24;;;;;;;7.10;5.60;;;27.60;59.80;;;;;;221725;1268;22583;-50
2023/08/15 23:50:27;;;;;;;5.30;4.80;;;27.60;60.00;;;;;;221943;1271;24200;-50
2023/08/15 23:55:30;;;;;;;6.00;5.30;;;27.60;60.10;;;;;;222105;1264;24177;-51
